Terminal Aerodrome Forecast
Issued by NWS

Home | Current Version | Previous Version | Text Only | Print | Product List | Glossary On
Versions: 1 2 3 4 5 6 7 8 9 10 11 12 13 14 15 16
000
FTUS42 TJSJ 182300 RRA
TAFIST
TAF
TIST 182342Z 1900/1924 09007KT P6SM VCTS SCT025CB BKN040
     FM191300 13012KT P6SM VCSH SCT025 SCT070
     FM192300 09008KT P6SM FEW025 SCT070=

USA.gov is the U.S. government's official web portal to all federal, state and local government web resources and services.